sensor_id;sensor_type;location;lat;lon;timestamp;P1;durP1;ratioP1;P2;durP2;ratioP2
54408;SDS011;40315;48.620;9.828;2023-09-19T00:01:43;1.23;;;0.70;;
54408;SDS011;40315;48.620;9.828;2023-09-19T00:04:12;1.08;;;0.70;;
54408;SDS011;40315;48.620;9.828;2023-09-19T00:06:39;1.25;;;0.70;;
54408;SDS011;40315;48.620;9.828;2023-09-19T00:09:09;0.57;;;0.50;;
54408;SDS011;40315;48.620;9.828;2023-09-19T00:11:36;1.50;;;0.60;;
54408;SDS011;40315;48.620;9.828;2023-09-19T00:14:03;1.55;;;0.90;;
54408;SDS011;40315;48.620;9.828;2023-09-19T00:16:36;0.88;;;0.68;;
54408;SDS011;40315;48.620;9.828;2023-09-19T00:19:03;1.40;;;0.70;;
54408;SDS011;40315;48.620;9.828;2023-09-19T00:21:35;1.08;;;0.50;;
54408;SDS011;40315;48.620;9.828;2023-09-19T00:24:03;0.68;;;0.55;;
54408;SDS011;40315;48.620;9.828;2023-09-19T00:26:31;0.65;;;0.50;;
54408;SDS011;40315;48.620;9.828;2023-09-19T00:28:59;0.73;;;0.52;;
54408;SDS011;40315;48.620;9.828;2023-09-19T00:31:31;0.95;;;0.50;;
54408;SDS011;40315;48.620;9.828;2023-09-19T00:33:58;1.80;;;0.47;;
54408;SDS011;40315;48.620;9.828;2023-09-19T00:36:29;2.05;;;0.60;;
54408;SDS011;40315;48.620;9.828;2023-09-19T00:39:00;1.67;;;0.60;;
54408;SDS011;40315;48.620;9.828;2023-09-19T00:41:28;1.27;;;0.45;;
54408;SDS011;40315;48.620;9.828;2023-09-19T00:43:55;1.33;;;0.57;;
54408;SDS011;40315;48.620;9.828;2023-09-19T00:46:25;0.95;;;0.68;;
54408;SDS011;40315;48.620;9.828;2023-09-19T00:48:54;0.93;;;0.60;;
54408;SDS011;40315;48.620;9.828;2023-09-19T00:51:22;1.40;;;0.75;;
54408;SDS011;40315;48.620;9.828;2023-09-19T00:53:51;1.00;;;0.73;;
54408;SDS011;40315;48.620;9.828;2023-09-19T00:56:19;0.95;;;0.73;;
54408;SDS011;40315;48.620;9.828;2023-09-19T00:58:47;1.00;;;0.60;;
54408;SDS011;40315;48.620;9.828;2023-09-19T01:03:52;1.73;;;0.60;;
54408;SDS011;40315;48.620;9.828;2023-09-19T01:06:19;1.88;;;0.57;;
54408;SDS011;40315;48.620;9.828;2023-09-19T01:08:46;1.67;;;0.50;;
54408;SDS011;40315;48.620;9.828;2023-09-19T01:11:15;1.40;;;0.57;;
54408;SDS011;40315;48.620;9.828;2023-09-19T01:13:53;0.70;;;0.40;;
54408;SDS011;40315;48.620;9.828;2023-09-19T01:16:28;0.63;;;0.52;;
54408;SDS011;40315;48.620;9.828;2023-09-19T01:19:02;0.98;;;0.77;;
54408;SDS011;40315;48.620;9.828;2023-09-19T01:21:42;0.98;;;0.63;;
54408;SDS011;40315;48.620;9.828;2023-09-19T01:24:31;1.13;;;0.68;;
54408;SDS011;40315;48.620;9.828;2023-09-19T01:27:25;0.98;;;0.60;;
54408;SDS011;40315;48.620;9.828;2023-09-19T01:30:20;0.80;;;0.57;;
54408;SDS011;40315;48.620;9.828;2023-09-19T01:32:52;1.58;;;0.63;;
54408;SDS011;40315;48.620;9.828;2023-09-19T01:35:19;1.63;;;0.55;;
54408;SDS011;40315;48.620;9.828;2023-09-19T01:37:46;0.93;;;0.50;;
54408;SDS011;40315;48.620;9.828;2023-09-19T01:40:14;1.05;;;0.90;;
54408;SDS011;40315;48.620;9.828;2023-09-19T01:42:45;1.00;;;0.60;;
54408;SDS011;40315;48.620;9.828;2023-09-19T01:45:28;2.22;;;0.60;;
54408;SDS011;40315;48.620;9.828;2023-09-19T01:48:03;1.52;;;0.70;;
54408;SDS011;40315;48.620;9.828;2023-09-19T02:12:32;1.52;;;0.70;;
54408;SDS011;40315;48.620;9.828;2023-09-19T02:15:02;0.60;;;0.60;;
54408;SDS011;40315;48.620;9.828;2023-09-19T02:17:32;0.60;;;0.60;;
54408;SDS011;40315;48.620;9.828;2023-09-19T02:19:59;0.90;;;0.57;;
54408;SDS011;40315;48.620;9.828;2023-09-19T02:22:26;1.40;;;0.60;;
54408;SDS011;40315;48.620;9.828;2023-09-19T02:24:53;1.00;;;0.60;;
54408;SDS011;40315;48.620;9.828;2023-09-19T02:27:20;0.70;;;0.70;;
54408;SDS011;40315;48.620;9.828;2023-09-19T02:29:48;0.60;;;0.50;;
54408;SDS011;40315;48.620;9.828;2023-09-19T02:32:17;1.30;;;0.90;;
54408;SDS011;40315;48.620;9.828;2023-09-19T02:34:46;1.20;;;0.60;;
54408;SDS011;40315;48.620;9.828;2023-09-19T02:37:14;0.75;;;0.73;;
54408;SDS011;40315;48.620;9.828;2023-09-19T02:39:41;0.93;;;0.60;;
54408;SDS011;40315;48.620;9.828;2023-09-19T02:42:08;1.80;;;0.70;;
54408;SDS011;40315;48.620;9.828;2023-09-19T02:44:38;0.65;;;0.60;;
54408;SDS011;40315;48.620;9.828;2023-09-19T02:47:06;0.90;;;0.63;;
54408;SDS011;40315;48.620;9.828;2023-09-19T02:49:34;0.50;;;0.50;;
54408;SDS011;40315;48.620;9.828;2023-09-19T02:52:02;0.82;;;0.60;;
54408;SDS011;40315;48.620;9.828;2023-09-19T02:54:30;0.52;;;0.52;;
54408;SDS011;40315;48.620;9.828;2023-09-19T02:56:57;1.35;;;0.80;;
54408;SDS011;40315;48.620;9.828;2023-09-19T02:59:25;1.05;;;0.63;;
54408;SDS011;40315;48.620;9.828;2023-09-19T03:01:53;1.23;;;0.60;;
54408;SDS011;40315;48.620;9.828;2023-09-19T03:04:22;0.82;;;0.70;;
54408;SDS011;40315;48.620;9.828;2023-09-19T03:06:51;0.70;;;0.60;;
54408;SDS011;40315;48.620;9.828;2023-09-19T03:09:24;1.13;;;0.60;;
54408;SDS011;40315;48.620;9.828;2023-09-19T03:11:54;1.13;;;0.70;;
54408;SDS011;40315;48.620;9.828;2023-09-19T03:14:21;2.03;;;0.68;;
54408;SDS011;40315;48.620;9.828;2023-09-19T03:16:49;1.52;;;0.70;;
54408;SDS011;40315;48.620;9.828;2023-09-19T03:19:17;1.08;;;0.70;;
54408;SDS011;40315;48.620;9.828;2023-09-19T03:21:47;0.90;;;0.60;;
54408;SDS011;40315;48.620;9.828;2023-09-19T03:24:16;1.30;;;0.70;;
54408;SDS011;40315;48.620;9.828;2023-09-19T03:26:46;2.05;;;0.80;;
54408;SDS011;40315;48.620;9.828;2023-09-19T03:29:14;0.60;;;0.60;;
54408;SDS011;40315;48.620;9.828;2023-09-19T03:31:43;2.80;;;0.70;;
54408;SDS011;40315;48.620;9.828;2023-09-19T03:34:11;0.85;;;0.70;;
54408;SDS011;40315;48.620;9.828;2023-09-19T03:36:41;1.77;;;0.77;;
54408;SDS011;40315;48.620;9.828;2023-09-19T03:39:11;1.40;;;0.75;;
54408;SDS011;40315;48.620;9.828;2023-09-19T03:41:42;1.58;;;0.82;;
54408;SDS011;40315;48.620;9.828;2023-09-19T03:44:10;1.05;;;0.68;;
54408;SDS011;40315;48.620;9.828;2023-09-19T03:46:37;0.80;;;0.80;;
54408;SDS011;40315;48.620;9.828;2023-09-19T03:49:04;1.10;;;0.90;;
54408;SDS011;40315;48.620;9.828;2023-09-19T03:51:32;3.00;;;0.85;;
54408;SDS011;40315;48.620;9.828;2023-09-19T03:53:59;0.77;;;0.73;;
54408;SDS011;40315;48.620;9.828;2023-09-19T03:56:30;1.35;;;0.80;;
54408;SDS011;40315;48.620;9.828;2023-09-19T03:58:57;2.20;;;0.90;;
54408;SDS011;40315;48.620;9.828;2023-09-19T04:01:24;2.05;;;0.93;;
54408;SDS011;40315;48.620;9.828;2023-09-19T04:03:55;1.77;;;1.20;;
54408;SDS011;40315;48.620;9.828;2023-09-19T04:06:24;1.30;;;0.80;;
54408;SDS011;40315;48.620;9.828;2023-09-19T04:08:52;1.77;;;0.90;;
54408;SDS011;40315;48.620;9.828;2023-09-19T04:11:19;1.00;;;0.80;;
54408;SDS011;40315;48.620;9.828;2023-09-19T04:13:48;3.05;;;1.10;;
54408;SDS011;40315;48.620;9.828;2023-09-19T04:16:17;3.47;;;1.00;;
54408;SDS011;40315;48.620;9.828;2023-09-19T04:18:44;1.35;;;0.88;;
54408;SDS011;40315;48.620;9.828;2023-09-19T04:21:11;0.85;;;0.70;;
54408;SDS011;40315;48.620;9.828;2023-09-19T04:23:38;1.15;;;0.88;;
54408;SDS011;40315;48.620;9.828;2023-09-19T04:26:05;1.38;;;0.98;;
54408;SDS011;40315;48.620;9.828;2023-09-19T04:28:34;1.05;;;0.80;;
54408;SDS011;40315;48.620;9.828;2023-09-19T04:31:05;1.90;;;0.80;;
54408;SDS011;40315;48.620;9.828;2023-09-19T04:33:33;1.25;;;0.93;;
54408;SDS011;40315;48.620;9.828;2023-09-19T04:36:02;1.75;;;0.80;;
54408;SDS011;40315;48.620;9.828;2023-09-19T04:38:30;1.33;;;1.23;;
54408;SDS011;40315;48.620;9.828;2023-09-19T04:40:57;1.10;;;0.90;;
54408;SDS011;40315;48.620;9.828;2023-09-19T04:43:24;0.95;;;0.80;;
54408;SDS011;40315;48.620;9.828;2023-09-19T04:45:51;1.48;;;1.00;;
54408;SDS011;40315;48.620;9.828;2023-09-19T04:48:24;1.55;;;0.90;;
54408;SDS011;40315;48.620;9.828;2023-09-19T04:50:51;3.70;;;1.08;;
54408;SDS011;40315;48.620;9.828;2023-09-19T04:53:18;1.50;;;0.90;;
54408;SDS011;40315;48.620;9.828;2023-09-19T04:55:49;1.80;;;1.00;;
54408;SDS011;40315;48.620;9.828;2023-09-19T04:58:17;2.65;;;0.90;;
54408;SDS011;40315;48.620;9.828;2023-09-19T05:00:44;1.95;;;0.95;;
54408;SDS011;40315;48.620;9.828;2023-09-19T05:03:11;2.28;;;1.10;;
54408;SDS011;40315;48.620;9.828;2023-09-19T05:05:45;1.52;;;0.90;;
54408;SDS011;40315;48.620;9.828;2023-09-19T05:08:12;1.98;;;1.05;;
54408;SDS011;40315;48.620;9.828;2023-09-19T05:10:39;1.30;;;1.10;;
54408;SDS011;40315;48.620;9.828;2023-09-19T05:13:06;1.27;;;1.17;;
54408;SDS011;40315;48.620;9.828;2023-09-19T05:15:33;1.33;;;0.90;;
54408;SDS011;40315;48.620;9.828;2023-09-19T05:18:09;1.27;;;1.17;;
54408;SDS011;40315;48.620;9.828;2023-09-19T05:20:36;3.00;;;1.35;;
54408;SDS011;40315;48.620;9.828;2023-09-19T05:23:05;1.45;;;1.05;;
54408;SDS011;40315;48.620;9.828;2023-09-19T05:25:37;2.53;;;1.25;;
54408;SDS011;40315;48.620;9.828;2023-09-19T05:28:07;1.20;;;1.00;;
54408;SDS011;40315;48.620;9.828;2023-09-19T05:30:36;4.18;;;1.20;;
54408;SDS011;40315;48.620;9.828;2023-09-19T05:33:07;2.08;;;1.50;;
54408;SDS011;40315;48.620;9.828;2023-09-19T05:35:37;2.10;;;1.20;;
54408;SDS011;40315;48.620;9.828;2023-09-19T05:38:06;2.40;;;1.20;;
54408;SDS011;40315;48.620;9.828;2023-09-19T05:40:36;2.10;;;1.10;;
54408;SDS011;40315;48.620;9.828;2023-09-19T05:43:04;1.13;;;1.02;;
54408;SDS011;40315;48.620;9.828;2023-09-19T05:45:31;1.38;;;1.10;;
54408;SDS011;40315;48.620;9.828;2023-09-19T05:48:06;1.00;;;0.90;;
54408;SDS011;40315;48.620;9.828;2023-09-19T05:50:34;1.27;;;0.85;;
54408;SDS011;40315;48.620;9.828;2023-09-19T05:53:01;1.30;;;0.80;;
54408;SDS011;40315;48.620;9.828;2023-09-19T05:55:30;1.30;;;0.70;;
54408;SDS011;40315;48.620;9.828;2023-09-19T05:57:57;1.42;;;1.08;;
54408;SDS011;40315;48.620;9.828;2023-09-19T06:00:25;1.92;;;1.05;;
54408;SDS011;40315;48.620;9.828;2023-09-19T06:02:54;1.13;;;0.70;;
54408;SDS011;40315;48.620;9.828;2023-09-19T06:05:24;1.58;;;1.08;;
54408;SDS011;40315;48.620;9.828;2023-09-19T06:07:53;1.38;;;1.00;;
54408;SDS011;40315;48.620;9.828;2023-09-19T06:10:20;2.08;;;1.40;;
54408;SDS011;40315;48.620;9.828;2023-09-19T06:12:49;1.63;;;1.20;;
54408;SDS011;40315;48.620;9.828;2023-09-19T06:15:16;1.33;;;1.02;;
54408;SDS011;40315;48.620;9.828;2023-09-19T06:17:46;1.02;;;0.93;;
54408;SDS011;40315;48.620;9.828;2023-09-19T06:20:14;1.42;;;0.80;;
54408;SDS011;40315;48.620;9.828;2023-09-19T06:22:42;1.63;;;0.88;;
54408;SDS011;40315;48.620;9.828;2023-09-19T06:25:10;1.52;;;0.90;;
54408;SDS011;40315;48.620;9.828;2023-09-19T06:27:40;2.60;;;0.75;;
54408;SDS011;40315;48.620;9.828;2023-09-19T06:30:11;1.65;;;0.90;;
54408;SDS011;40315;48.620;9.828;2023-09-19T06:32:38;3.55;;;1.20;;
54408;SDS011;40315;48.620;9.828;2023-09-19T06:35:05;2.30;;;1.10;;
54408;SDS011;40315;48.620;9.828;2023-09-19T06:37:36;2.10;;;0.98;;
54408;SDS011;40315;48.620;9.828;2023-09-19T06:40:04;2.38;;;1.10;;
54408;SDS011;40315;48.620;9.828;2023-09-19T06:42:34;2.15;;;1.02;;
54408;SDS011;40315;48.620;9.828;2023-09-19T06:45:02;2.03;;;1.10;;
54408;SDS011;40315;48.620;9.828;2023-09-19T06:47:32;1.67;;;1.00;;
54408;SDS011;40315;48.620;9.828;2023-09-19T06:50:02;1.38;;;1.20;;
54408;SDS011;40315;48.620;9.828;2023-09-19T06:52:30;1.40;;;1.30;;
54408;SDS011;40315;48.620;9.828;2023-09-19T06:54:58;1.50;;;1.10;;
54408;SDS011;40315;48.620;9.828;2023-09-19T06:57:25;1.65;;;1.30;;
54408;SDS011;40315;48.620;9.828;2023-09-19T06:59:52;2.20;;;1.40;;
54408;SDS011;40315;48.620;9.828;2023-09-19T07:02:19;2.00;;;1.33;;
54408;SDS011;40315;48.620;9.828;2023-09-19T07:04:48;3.67;;;1.50;;
54408;SDS011;40315;48.620;9.828;2023-09-19T07:07:18;1.88;;;1.50;;
54408;SDS011;40315;48.620;9.828;2023-09-19T07:09:45;2.58;;;1.40;;
54408;SDS011;40315;48.620;9.828;2023-09-19T07:12:14;1.75;;;1.48;;
54408;SDS011;40315;48.620;9.828;2023-09-19T07:14:42;3.53;;;1.33;;
54408;SDS011;40315;48.620;9.828;2023-09-19T07:17:09;1.58;;;1.33;;
54408;SDS011;40315;48.620;9.828;2023-09-19T07:19:36;2.05;;;1.65;;
54408;SDS011;40315;48.620;9.828;2023-09-19T07:22:05;2.17;;;1.33;;
54408;SDS011;40315;48.620;9.828;2023-09-19T07:24:33;2.00;;;1.38;;
54408;SDS011;40315;48.620;9.828;2023-09-19T07:27:02;2.38;;;1.40;;
54408;SDS011;40315;48.620;9.828;2023-09-19T07:29:32;1.58;;;1.40;;
54408;SDS011;40315;48.620;9.828;2023-09-19T07:31:59;1.77;;;1.30;;
54408;SDS011;40315;48.620;9.828;2023-09-19T07:34:26;1.45;;;1.35;;
54408;SDS011;40315;48.620;9.828;2023-09-19T07:36:54;3.03;;;1.27;;
54408;SDS011;40315;48.620;9.828;2023-09-19T07:39:25;1.20;;;1.10;;
54408;SDS011;40315;48.620;9.828;2023-09-19T07:41:55;1.58;;;1.38;;
54408;SDS011;40315;48.620;9.828;2023-09-19T07:44:21;1.70;;;1.30;;
54408;SDS011;40315;48.620;9.828;2023-09-19T07:46:50;1.83;;;1.35;;
54408;SDS011;40315;48.620;9.828;2023-09-19T07:49:18;2.13;;;1.70;;
54408;SDS011;40315;48.620;9.828;2023-09-19T07:51:53;2.17;;;1.50;;
54408;SDS011;40315;48.620;9.828;2023-09-19T07:54:21;2.10;;;1.80;;
54408;SDS011;40315;48.620;9.828;2023-09-19T07:56:52;2.25;;;1.50;;
54408;SDS011;40315;48.620;9.828;2023-09-19T07:59:20;1.50;;;1.40;;
54408;SDS011;40315;48.620;9.828;2023-09-19T08:01:48;1.70;;;1.60;;
54408;SDS011;40315;48.620;9.828;2023-09-19T08:04:15;2.13;;;1.88;;
54408;SDS011;40315;48.620;9.828;2023-09-19T08:06:44;3.35;;;1.85;;
54408;SDS011;40315;48.620;9.828;2023-09-19T08:09:11;1.90;;;1.65;;
54408;SDS011;40315;48.620;9.828;2023-09-19T08:11:45;2.45;;;1.90;;
54408;SDS011;40315;48.620;9.828;2023-09-19T08:14:14;2.58;;;1.75;;
54408;SDS011;40315;48.620;9.828;2023-09-19T08:16:41;2.55;;;1.70;;
54408;SDS011;40315;48.620;9.828;2023-09-19T08:19:09;1.77;;;1.58;;
54408;SDS011;40315;48.620;9.828;2023-09-19T08:21:36;2.03;;;1.58;;
54408;SDS011;40315;48.620;9.828;2023-09-19T08:24:03;2.80;;;1.85;;
54408;SDS011;40315;48.620;9.828;2023-09-19T08:26:37;1.92;;;1.48;;
54408;SDS011;40315;48.620;9.828;2023-09-19T08:29:04;3.67;;;1.80;;
54408;SDS011;40315;48.620;9.828;2023-09-19T08:31:38;2.30;;;1.70;;
54408;SDS011;40315;48.620;9.828;2023-09-19T08:34:05;2.35;;;1.77;;
54408;SDS011;40315;48.620;9.828;2023-09-19T08:36:32;2.47;;;1.80;;
54408;SDS011;40315;48.620;9.828;2023-09-19T08:39:00;2.72;;;1.55;;
54408;SDS011;40315;48.620;9.828;2023-09-19T08:41:27;2.40;;;1.85;;
54408;SDS011;40315;48.620;9.828;2023-09-19T08:43:58;2.75;;;1.95;;
54408;SDS011;40315;48.620;9.828;2023-09-19T08:46:26;2.20;;;1.55;;
54408;SDS011;40315;48.620;9.828;2023-09-19T08:49:01;2.75;;;1.60;;
54408;SDS011;40315;48.620;9.828;2023-09-19T08:51:33;2.70;;;1.90;;
54408;SDS011;40315;48.620;9.828;2023-09-19T08:54:06;1.70;;;1.60;;
54408;SDS011;40315;48.620;9.828;2023-09-19T08:56:35;2.92;;;1.50;;
54408;SDS011;40315;48.620;9.828;2023-09-19T08:59:05;2.47;;;1.30;;
54408;SDS011;40315;48.620;9.828;2023-09-19T09:01:33;1.77;;;1.10;;
54408;SDS011;40315;48.620;9.828;2023-09-19T09:04:02;2.78;;;1.15;;
54408;SDS011;40315;48.620;9.828;2023-09-19T09:06:30;1.70;;;1.20;;
54408;SDS011;40315;48.620;9.828;2023-09-19T09:08:58;2.00;;;1.30;;
54408;SDS011;40315;48.620;9.828;2023-09-19T09:11:25;1.65;;;1.30;;
54408;SDS011;40315;48.620;9.828;2023-09-19T09:13:53;2.45;;;1.38;;
54408;SDS011;40315;48.620;9.828;2023-09-19T09:16:20;1.83;;;1.40;;
54408;SDS011;40315;48.620;9.828;2023-09-19T09:18:53;1.55;;;1.20;;
54408;SDS011;40315;48.620;9.828;2023-09-19T09:21:24;2.08;;;1.20;;
54408;SDS011;40315;48.620;9.828;2023-09-19T09:23:52;1.33;;;1.02;;
54408;SDS011;40315;48.620;9.828;2023-09-19T09:26:24;1.50;;;1.23;;
54408;SDS011;40315;48.620;9.828;2023-09-19T09:29:07;1.40;;;1.30;;
54408;SDS011;40315;48.620;9.828;2023-09-19T09:31:34;2.45;;;1.30;;
54408;SDS011;40315;48.620;9.828;2023-09-19T09:34:02;1.70;;;1.20;;
54408;SDS011;40315;48.620;9.828;2023-09-19T09:36:35;2.15;;;1.15;;
54408;SDS011;40315;48.620;9.828;2023-09-19T09:39:04;1.98;;;1.27;;
54408;SDS011;40315;48.620;9.828;2023-09-19T09:41:43;1.40;;;1.30;;
54408;SDS011;40315;48.620;9.828;2023-09-19T09:44:12;2.47;;;1.20;;
54408;SDS011;40315;48.620;9.828;2023-09-19T09:46:42;1.95;;;1.00;;
54408;SDS011;40315;48.620;9.828;2023-09-19T09:49:47;1.98;;;1.30;;
54408;SDS011;40315;48.620;9.828;2023-09-19T09:52:23;1.88;;;1.00;;
54408;SDS011;40315;48.620;9.828;2023-09-19T09:55:02;2.80;;;1.10;;
54408;SDS011;40315;48.620;9.828;2023-09-19T09:57:30;1.92;;;0.93;;
54408;SDS011;40315;48.620;9.828;2023-09-19T09:59:58;1.48;;;1.00;;
54408;SDS011;40315;48.620;9.828;2023-09-19T10:02:44;1.25;;;1.00;;
54408;SDS011;40315;48.620;9.828;2023-09-19T10:05:12;2.00;;;1.00;;
54408;SDS011;40315;48.620;9.828;2023-09-19T10:07:47;1.63;;;1.00;;
54408;SDS011;40315;48.620;9.828;2023-09-19T10:10:31;1.98;;;1.10;;
54408;SDS011;40315;48.620;9.828;2023-09-19T10:13:10;2.28;;;1.00;;
54408;SDS011;40315;48.620;9.828;2023-09-19T10:15:40;1.77;;;1.10;;
54408;SDS011;40315;48.620;9.828;2023-09-19T10:18:16;1.02;;;0.82;;
54408;SDS011;40315;48.620;9.828;2023-09-19T10:20:47;1.85;;;1.08;;
54408;SDS011;40315;48.620;9.828;2023-09-19T10:23:17;2.28;;;1.00;;
54408;SDS011;40315;48.620;9.828;2023-09-19T10:25:48;1.85;;;1.00;;
54408;SDS011;40315;48.620;9.828;2023-09-19T10:28:17;1.58;;;0.85;;
54408;SDS011;40315;48.620;9.828;2023-09-19T10:30:47;2.58;;;1.02;;
54408;SDS011;40315;48.620;9.828;2023-09-19T10:33:16;2.00;;;1.20;;
54408;SDS011;40315;48.620;9.828;2023-09-19T10:35:45;1.42;;;0.90;;
54408;SDS011;40315;48.620;9.828;2023-09-19T10:38:18;1.95;;;0.95;;
54408;SDS011;40315;48.620;9.828;2023-09-19T10:40:49;2.33;;;1.20;;
54408;SDS011;40315;48.620;9.828;2023-09-19T10:43:17;1.23;;;0.80;;
54408;SDS011;40315;48.620;9.828;2023-09-19T10:45:49;2.33;;;1.08;;
54408;SDS011;40315;48.620;9.828;2023-09-19T10:48:18;1.23;;;0.98;;
54408;SDS011;40315;48.620;9.828;2023-09-19T10:50:49;3.00;;;1.17;;
54408;SDS011;40315;48.620;9.828;2023-09-19T10:53:21;1.27;;;1.00;;
54408;SDS011;40315;48.620;9.828;2023-09-19T10:55:50;1.88;;;1.05;;
54408;SDS011;40315;48.620;9.828;2023-09-19T10:58:24;3.58;;;1.10;;
54408;SDS011;40315;48.620;9.828;2023-09-19T11:00:54;1.10;;;0.80;;
54408;SDS011;40315;48.620;9.828;2023-09-19T11:03:22;1.70;;;1.02;;
54408;SDS011;40315;48.620;9.828;2023-09-19T11:06:01;1.27;;;0.90;;
54408;SDS011;40315;48.620;9.828;2023-09-19T11:11:48;1.45;;;0.90;;
54408;SDS011;40315;48.620;9.828;2023-09-19T11:23:19;1.35;;;0.85;;
54408;SDS011;40315;48.620;9.828;2023-09-19T11:25:54;0.98;;;0.88;;
54408;SDS011;40315;48.620;9.828;2023-09-19T11:28:31;2.80;;;1.25;;
54408;SDS011;40315;48.620;9.828;2023-09-19T11:30:58;1.70;;;0.98;;
54408;SDS011;40315;48.620;9.828;2023-09-19T11:33:25;1.67;;;1.05;;
54408;SDS011;40315;48.620;9.828;2023-09-19T11:36:01;1.50;;;1.02;;
54408;SDS011;40315;48.620;9.828;2023-09-19T11:41:37;1.13;;;0.90;;
54408;SDS011;40315;48.620;9.828;2023-09-19T11:47:04;2.88;;;1.10;;
54408;SDS011;40315;48.620;9.828;2023-09-19T11:49:32;1.55;;;0.90;;
54408;SDS011;40315;48.620;9.828;2023-09-19T11:52:02;3.05;;;1.17;;
54408;SDS011;40315;48.620;9.828;2023-09-19T11:54:33;1.17;;;0.95;;
54408;SDS011;40315;48.620;9.828;2023-09-19T11:57:06;2.15;;;1.00;;
54408;SDS011;40315;48.620;9.828;2023-09-19T11:59:35;1.75;;;0.95;;
54408;SDS011;40315;48.620;9.828;2023-09-19T12:02:05;1.98;;;1.08;;
54408;SDS011;40315;48.620;9.828;2023-09-19T12:04:34;1.98;;;1.20;;
54408;SDS011;40315;48.620;9.828;2023-09-19T12:07:03;1.50;;;1.10;;
54408;SDS011;40315;48.620;9.828;2023-09-19T12:09:35;2.55;;;1.08;;
54408;SDS011;40315;48.620;9.828;2023-09-19T12:12:08;1.55;;;1.00;;
54408;SDS011;40315;48.620;9.828;2023-09-19T12:14:37;1.95;;;0.95;;
54408;SDS011;40315;48.620;9.828;2023-09-19T12:17:07;0.80;;;0.80;;
54408;SDS011;40315;48.620;9.828;2023-09-19T12:19:36;2.08;;;0.93;;
54408;SDS011;40315;48.620;9.828;2023-09-19T12:22:03;2.22;;;1.00;;
54408;SDS011;40315;48.620;9.828;2023-09-19T12:24:30;1.52;;;0.90;;
54408;SDS011;40315;48.620;9.828;2023-09-19T12:27:01;1.58;;;1.02;;
54408;SDS011;40315;48.620;9.828;2023-09-19T12:29:41;1.50;;;0.98;;
54408;SDS011;40315;48.620;9.828;2023-09-19T12:32:09;2.03;;;0.70;;
54408;SDS011;40315;48.620;9.828;2023-09-19T12:34:36;1.98;;;0.93;;
54408;SDS011;40315;48.620;9.828;2023-09-19T12:37:08;1.20;;;1.10;;
54408;SDS011;40315;48.620;9.828;2023-09-19T12:39:41;1.80;;;1.08;;
54408;SDS011;40315;48.620;9.828;2023-09-19T12:42:14;1.10;;;1.00;;
54408;SDS011;40315;48.620;9.828;2023-09-19T12:44:43;1.27;;;0.80;;
54408;SDS011;40315;48.620;9.828;2023-09-19T12:47:12;1.65;;;0.90;;
54408;SDS011;40315;48.620;9.828;2023-09-19T12:52:50;1.33;;;0.90;;
54408;SDS011;40315;48.620;9.828;2023-09-19T12:55:22;1.98;;;0.88;;
54408;SDS011;40315;48.620;9.828;2023-09-19T12:58:02;1.23;;;0.93;;
54408;SDS011;40315;48.620;9.828;2023-09-19T13:00:36;0.85;;;0.73;;
54408;SDS011;40315;48.620;9.828;2023-09-19T13:03:13;1.52;;;0.93;;
54408;SDS011;40315;48.620;9.828;2023-09-19T13:05:48;1.45;;;0.80;;
54408;SDS011;40315;48.620;9.828;2023-09-19T13:08:17;1.65;;;0.82;;
54408;SDS011;40315;48.620;9.828;2023-09-19T13:11:03;2.22;;;1.00;;
54408;SDS011;40315;48.620;9.828;2023-09-19T13:13:39;1.70;;;0.90;;
54408;SDS011;40315;48.620;9.828;2023-09-19T13:16:11;1.15;;;0.90;;
54408;SDS011;40315;48.620;9.828;2023-09-19T13:18:45;1.88;;;1.00;;
54408;SDS011;40315;48.620;9.828;2023-09-19T13:21:13;1.83;;;0.80;;
54408;SDS011;40315;48.620;9.828;2023-09-19T13:23:52;2.67;;;0.80;;
54408;SDS011;40315;48.620;9.828;2023-09-19T13:26:24;0.98;;;0.80;;
54408;SDS011;40315;48.620;9.828;2023-09-19T13:28:51;2.30;;;1.15;;
54408;SDS011;40315;48.620;9.828;2023-09-19T13:31:19;1.08;;;0.90;;
54408;SDS011;40315;48.620;9.828;2023-09-19T13:33:49;1.48;;;1.00;;
54408;SDS011;40315;48.620;9.828;2023-09-19T13:36:17;1.02;;;0.80;;
54408;SDS011;40315;48.620;9.828;2023-09-19T13:38:44;1.50;;;0.80;;
54408;SDS011;40315;48.620;9.828;2023-09-19T13:41:13;1.95;;;0.95;;
54408;SDS011;40315;48.620;9.828;2023-09-19T13:43:41;2.78;;;0.85;;
54408;SDS011;40315;48.620;9.828;2023-09-19T13:46:13;1.20;;;0.80;;
54408;SDS011;40315;48.620;9.828;2023-09-19T13:48:43;2.03;;;0.90;;
54408;SDS011;40315;48.620;9.828;2023-09-19T13:51:09;2.58;;;0.90;;
54408;SDS011;40315;48.620;9.828;2023-09-19T13:53:39;2.00;;;1.10;;
54408;SDS011;40315;48.620;9.828;2023-09-19T13:56:06;1.63;;;0.90;;
54408;SDS011;40315;48.620;9.828;2023-09-19T13:58:33;0.90;;;0.80;;
54408;SDS011;40315;48.620;9.828;2023-09-19T14:01:02;1.17;;;0.80;;
54408;SDS011;40315;48.620;9.828;2023-09-19T14:03:29;0.85;;;0.75;;
54408;SDS011;40315;48.620;9.828;2023-09-19T14:06:00;1.05;;;0.98;;
54408;SDS011;40315;48.620;9.828;2023-09-19T14:08:27;1.35;;;0.90;;
54408;SDS011;40315;48.620;9.828;2023-09-19T14:10:58;1.80;;;0.77;;
54408;SDS011;40315;48.620;9.828;2023-09-19T14:13:25;3.10;;;1.00;;
54408;SDS011;40315;48.620;9.828;2023-09-19T14:15:52;2.75;;;0.90;;
54408;SDS011;40315;48.620;9.828;2023-09-19T14:18:19;1.02;;;0.88;;
54408;SDS011;40315;48.620;9.828;2023-09-19T14:20:47;1.42;;;0.90;;
54408;SDS011;40315;48.620;9.828;2023-09-19T14:23:16;1.75;;;1.02;;
54408;SDS011;40315;48.620;9.828;2023-09-19T14:25:43;1.15;;;0.80;;
54408;SDS011;40315;48.620;9.828;2023-09-19T14:28:10;1.80;;;1.00;;
54408;SDS011;40315;48.620;9.828;2023-09-19T14:30:37;1.10;;;0.82;;
54408;SDS011;40315;48.620;9.828;2023-09-19T14:33:04;0.98;;;0.80;;
54408;SDS011;40315;48.620;9.828;2023-09-19T14:35:32;1.10;;;1.00;;
54408;SDS011;40315;48.620;9.828;2023-09-19T14:38:03;1.27;;;1.00;;
54408;SDS011;40315;48.620;9.828;2023-09-19T14:40:34;1.75;;;1.00;;
54408;SDS011;40315;48.620;9.828;2023-09-19T14:43:02;1.83;;;0.93;;
54408;SDS011;40315;48.620;9.828;2023-09-19T14:45:31;2.10;;;1.20;;
54408;SDS011;40315;48.620;9.828;2023-09-19T14:47:58;3.28;;;1.02;;
54408;SDS011;40315;48.620;9.828;2023-09-19T14:50:25;1.48;;;1.05;;
54408;SDS011;40315;48.620;9.828;2023-09-19T14:52:52;1.10;;;0.90;;
54408;SDS011;40315;48.620;9.828;2023-09-19T14:55:19;2.55;;;1.02;;
54408;SDS011;40315;48.620;9.828;2023-09-19T14:57:50;1.95;;;0.98;;
54408;SDS011;40315;48.620;9.828;2023-09-19T15:00:18;1.30;;;1.20;;
54408;SDS011;40315;48.620;9.828;2023-09-19T15:02:49;1.13;;;1.00;;
54408;SDS011;40315;48.620;9.828;2023-09-19T15:05:21;1.00;;;0.90;;
54408;SDS011;40315;48.620;9.828;2023-09-19T15:07:48;2.78;;;1.20;;
54408;SDS011;40315;48.620;9.828;2023-09-19T15:10:16;1.95;;;1.20;;
54408;SDS011;40315;48.620;9.828;2023-09-19T15:12:43;1.65;;;1.00;;
54408;SDS011;40315;48.620;9.828;2023-09-19T15:15:12;1.23;;;1.10;;
54408;SDS011;40315;48.620;9.828;2023-09-19T15:17:39;1.63;;;0.85;;
54408;SDS011;40315;48.620;9.828;2023-09-19T15:20:06;1.15;;;0.82;;
54408;SDS011;40315;48.620;9.828;2023-09-19T15:22:36;1.95;;;1.27;;
54408;SDS011;40315;48.620;9.828;2023-09-19T15:25:04;1.52;;;1.00;;
54408;SDS011;40315;48.620;9.828;2023-09-19T15:27:31;1.85;;;0.98;;
54408;SDS011;40315;48.620;9.828;2023-09-19T15:29:58;3.45;;;1.40;;
54408;SDS011;40315;48.620;9.828;2023-09-19T15:32:29;2.17;;;0.90;;
54408;SDS011;40315;48.620;9.828;2023-09-19T15:34:56;3.20;;;1.30;;
54408;SDS011;40315;48.620;9.828;2023-09-19T15:37:23;2.45;;;1.00;;
54408;SDS011;40315;48.620;9.828;2023-09-19T15:39:51;0.82;;;0.82;;
54408;SDS011;40315;48.620;9.828;2023-09-19T15:42:18;2.15;;;1.27;;
54408;SDS011;40315;48.620;9.828;2023-09-19T15:44:45;1.80;;;1.08;;
54408;SDS011;40315;48.620;9.828;2023-09-19T15:47:15;1.90;;;1.00;;
54408;SDS011;40315;48.620;9.828;2023-09-19T15:49:43;1.27;;;0.90;;